sensor_id;sensor_type;location;lat;lon;timestamp;pressure;altitude;pressure_sealevel;temperature;humidity
3178;BME280;38141;42.666;23.344;2023-04-15T00:02:14;93884.78;;;8.93;100.00
3178;BME280;38141;42.666;23.344;2023-04-15T00:04:43;93898.63;;;8.95;100.00
3178;BME280;38141;42.666;23.344;2023-04-15T00:07:11;93876.78;;;8.72;100.00
3178;BME280;38141;42.666;23.344;2023-04-15T00:09:39;93868.38;;;8.34;100.00
3178;BME280;38141;42.666;23.344;2023-04-15T00:12:06;93839.13;;;7.90;100.00
3178;BME280;38141;42.666;23.344;2023-04-15T00:14:33;93842.97;;;8.11;100.00
3178;BME280;38141;42.666;23.344;2023-04-15T00:17:01;93902.16;;;8.78;100.00
3178;BME280;38141;42.666;23.344;2023-04-15T00:19:28;93921.03;;;8.85;100.00
3178;BME280;38141;42.666;23.344;2023-04-15T00:21:55;93838.72;;;8.24;100.00
3178;BME280;38141;42.666;23.344;2023-04-15T00:24:23;93924.47;;;8.89;100.00
3178;BME280;38141;42.666;23.344;2023-04-15T00:26:50;93891.38;;;8.85;100.00
3178;BME280;38141;42.666;23.344;2023-04-15T00:29:17;93847.91;;;8.55;100.00
3178;BME280;38141;42.666;23.344;2023-04-15T00:31:44;93915.53;;;9.10;100.00
3178;BME280;38141;42.666;23.344;2023-04-15T00:34:10;93883.91;;;9.14;100.00
3178;BME280;38141;42.666;23.344;2023-04-15T00:36:38;93889.31;;;9.17;100.00
3178;BME280;38141;42.666;23.344;2023-04-15T00:39:04;93882.81;;;9.01;100.00
3178;BME280;38141;42.666;23.344;2023-04-15T00:41:32;93903.88;;;9.27;100.00
3178;BME280;38141;42.666;23.344;2023-04-15T00:44:00;93889.25;;;9.24;100.00
3178;BME280;38141;42.666;23.344;2023-04-15T00:46:27;93924.25;;;9.49;100.00
3178;BME280;38141;42.666;23.344;2023-04-15T00:48:55;93937.31;;;9.54;100.00
3178;BME280;38141;42.666;23.344;2023-04-15T00:51:22;93926.25;;;9.27;100.00
3178;BME280;38141;42.666;23.344;2023-04-15T00:53:48;93928.16;;;9.34;100.00
3178;BME280;38141;42.666;23.344;2023-04-15T00:56:16;93929.75;;;9.24;100.00
3178;BME280;38141;42.666;23.344;2023-04-15T00:58:46;93920.16;;;9.09;100.00
3178;BME280;38141;42.666;23.344;2023-04-15T01:01:13;93824.38;;;8.69;100.00
3178;BME280;38141;42.666;23.344;2023-04-15T01:03:40;93928.94;;;9.34;100.00
3178;BME280;38141;42.666;23.344;2023-04-15T01:06:07;93858.63;;;8.79;100.00
3178;BME280;38141;42.666;23.344;2023-04-15T01:08:34;93910.94;;;9.03;100.00
3178;BME280;38141;42.666;23.344;2023-04-15T01:11:01;93858.69;;;8.55;100.00
3178;BME280;38141;42.666;23.344;2023-04-15T01:13:28;93837.94;;;8.37;100.00
3178;BME280;38141;42.666;23.344;2023-04-15T01:15:57;93868.69;;;8.72;100.00
3178;BME280;38141;42.666;23.344;2023-04-15T01:18:24;93872.84;;;8.87;100.00
3178;BME280;38141;42.666;23.344;2023-04-15T01:20:51;93932.78;;;9.33;100.00
3178;BME280;38141;42.666;23.344;2023-04-15T01:23:19;93898.97;;;9.11;100.00
3178;BME280;38141;42.666;23.344;2023-04-15T01:25:48;93917.81;;;9.22;100.00
3178;BME280;38141;42.666;23.344;2023-04-15T01:28:15;93905.53;;;9.07;100.00
3178;BME280;38141;42.666;23.344;2023-04-15T01:30:41;93910.88;;;9.21;100.00
3178;BME280;38141;42.666;23.344;2023-04-15T01:33:09;93890.13;;;9.07;100.00
3178;BME280;38141;42.666;23.344;2023-04-15T01:35:35;93889.78;;;8.91;100.00
3178;BME280;38141;42.666;23.344;2023-04-15T01:38:05;93850.63;;;8.51;100.00
3178;BME280;38141;42.666;23.344;2023-04-15T01:40:33;93916.75;;;8.91;100.00
3178;BME280;38141;42.666;23.344;2023-04-15T01:43:01;93924.06;;;8.98;100.00
3178;BME280;38141;42.666;23.344;2023-04-15T01:45:29;93905.59;;;8.92;100.00
3178;BME280;38141;42.666;23.344;2023-04-15T01:47:56;93824.13;;;8.35;100.00
3178;BME280;38141;42.666;23.344;2023-04-15T01:50:24;93890.94;;;8.86;100.00
3178;BME280;38141;42.666;23.344;2023-04-15T01:52:51;93899.09;;;8.76;100.00
3178;BME280;38141;42.666;23.344;2023-04-15T01:55:18;93936.00;;;8.97;100.00
3178;BME280;38141;42.666;23.344;2023-04-15T01:57:45;93912.91;;;8.88;100.00
3178;BME280;38141;42.666;23.344;2023-04-15T02:00:14;93929.47;;;8.94;100.00
3178;BME280;38141;42.666;23.344;2023-04-15T02:02:40;93939.09;;;8.99;100.00
3178;BME280;38141;42.666;23.344;2023-04-15T02:05:08;93945.59;;;9.12;100.00
3178;BME280;38141;42.666;23.344;2023-04-15T02:07:35;93931.72;;;9.10;100.00
3178;BME280;38141;42.666;23.344;2023-04-15T02:10:02;93916.75;;;8.87;100.00
3178;BME280;38141;42.666;23.344;2023-04-15T02:12:29;93846.41;;;8.18;100.00
3178;BME280;38141;42.666;23.344;2023-04-15T02:14:56;93931.41;;;8.90;100.00
3178;BME280;38141;42.666;23.344;2023-04-15T02:17:24;93899.13;;;8.58;100.00
3178;BME280;38141;42.666;23.344;2023-04-15T02:19:51;93907.53;;;8.81;100.00
3178;BME280;38141;42.666;23.344;2023-04-15T02:22:18;93916.81;;;8.73;100.00
3178;BME280;38141;42.666;23.344;2023-04-15T02:24:44;93920.25;;;8.84;100.00
3178;BME280;38141;42.666;23.344;2023-04-15T02:27:15;93917.56;;;8.81;100.00
3178;BME280;38141;42.666;23.344;2023-04-15T02:29:43;93922.56;;;8.79;100.00
3178;BME280;38141;42.666;23.344;2023-04-15T02:32:10;93925.66;;;8.74;100.00
3178;BME280;38141;42.666;23.344;2023-04-15T02:34:39;93928.81;;;8.37;100.00
3178;BME280;38141;42.666;23.344;2023-04-15T02:37:07;93776.47;;;7.37;100.00
3178;BME280;38141;42.666;23.344;2023-04-15T02:39:35;93885.31;;;7.75;100.00
3178;BME280;38141;42.666;23.344;2023-04-15T02:42:02;93901.47;;;7.89;100.00
3178;BME280;38141;42.666;23.344;2023-04-15T02:44:29;93926.09;;;8.19;100.00
3178;BME280;38141;42.666;23.344;2023-04-15T02:46:57;93936.50;;;8.21;100.00
3178;BME280;38141;42.666;23.344;2023-04-15T02:49:24;93851.09;;;7.57;100.00
3178;BME280;38141;42.666;23.344;2023-04-15T02:51:52;93828.75;;;7.43;100.00
3178;BME280;38141;42.666;23.344;2023-04-15T02:54:23;93851.06;;;7.68;100.00
3178;BME280;38141;42.666;23.344;2023-04-15T02:56:50;93866.47;;;7.57;100.00
3178;BME280;38141;42.666;23.344;2023-04-15T02:59:19;93847.53;;;7.04;100.00
3178;BME280;38141;42.666;23.344;2023-04-15T03:01:46;93842.53;;;7.09;100.00
3178;BME280;38141;42.666;23.344;2023-04-15T03:04:13;93794.09;;;6.85;100.00
3178;BME280;38141;42.666;23.344;2023-04-15T03:06:40;93920.69;;;7.70;100.00
3178;BME280;38141;42.666;23.344;2023-04-15T03:09:08;93931.41;;;7.52;100.00
3178;BME280;38141;42.666;23.344;2023-04-15T03:11:35;93944.09;;;7.55;100.00
3178;BME280;38141;42.666;23.344;2023-04-15T03:14:04;93934.06;;;7.38;100.00
3178;BME280;38141;42.666;23.344;2023-04-15T03:16:31;93963.38;;;7.68;100.00
3178;BME280;38141;42.666;23.344;2023-04-15T03:18:58;93958.31;;;7.45;100.00
3178;BME280;38141;42.666;23.344;2023-04-15T03:21:25;93941.28;;;7.12;100.00
3178;BME280;38141;42.666;23.344;2023-04-15T03:23:52;93959.41;;;7.33;100.00
3178;BME280;38141;42.666;23.344;2023-04-15T03:26:27;93960.97;;;7.34;100.00
3178;BME280;38141;42.666;23.344;2023-04-15T03:28:54;93928.63;;;7.17;100.00
3178;BME280;38141;42.666;23.344;2023-04-15T03:31:21;93963.22;;;7.22;100.00
3178;BME280;38141;42.666;23.344;2023-04-15T03:33:49;93975.78;;;6.96;100.00
3178;BME280;38141;42.666;23.344;2023-04-15T03:36:15;93920.44;;;6.88;100.00
3178;BME280;38141;42.666;23.344;2023-04-15T03:38:42;93979.31;;;7.07;100.00
3178;BME280;38141;42.666;23.344;2023-04-15T03:41:09;93993.00;;;6.85;100.00
3178;BME280;38141;42.666;23.344;2023-04-15T03:43:39;93983.75;;;6.79;100.00
3178;BME280;38141;42.666;23.344;2023-04-15T03:46:06;93988.00;;;6.87;100.00
3178;BME280;38141;42.666;23.344;2023-04-15T03:48:33;93930.50;;;6.37;100.00
3178;BME280;38141;42.666;23.344;2023-04-15T03:51:00;93980.25;;;6.67;100.00
3178;BME280;38141;42.666;23.344;2023-04-15T03:53:26;93951.97;;;6.30;100.00
3178;BME280;38141;42.666;23.344;2023-04-15T03:55:53;94003.34;;;6.79;100.00
3178;BME280;38141;42.666;23.344;2023-04-15T03:58:20;93978.06;;;6.36;100.00
3178;BME280;38141;42.666;23.344;2023-04-15T04:00:49;93949.25;;;6.26;100.00
3178;BME280;38141;42.666;23.344;2023-04-15T04:03:17;93860.91;;;5.63;100.00
3178;BME280;38141;42.666;23.344;2023-04-15T04:05:44;94010.28;;;6.87;100.00
3178;BME280;38141;42.666;23.344;2023-04-15T04:08:10;93983.88;;;6.38;100.00
3178;BME280;38141;42.666;23.344;2023-04-15T04:10:38;94013.72;;;6.81;100.00
3178;BME280;38141;42.666;23.344;2023-04-15T04:13:05;94003.06;;;6.95;100.00
3178;BME280;38141;42.666;23.344;2023-04-15T04:15:32;94005.13;;;7.26;100.00
3178;BME280;38141;42.666;23.344;2023-04-15T04:18:00;94006.72;;;7.41;100.00
3178;BME280;38141;42.666;23.344;2023-04-15T04:20:27;94005.75;;;8.13;100.00
3178;BME280;38141;42.666;23.344;2023-04-15T04:22:53;94016.91;;;8.08;100.00
3178;BME280;38141;42.666;23.344;2023-04-15T04:25:21;93995.41;;;8.40;100.00
3178;BME280;38141;42.666;23.344;2023-04-15T04:27:49;93946.88;;;8.51;100.00
3178;BME280;38141;42.666;23.344;2023-04-15T04:30:16;93958.34;;;9.08;100.00
3178;BME280;38141;42.666;23.344;2023-04-15T04:32:42;93870.59;;;8.68;100.00
3178;BME280;38141;42.666;23.344;2023-04-15T04:35:11;93978.06;;;9.81;100.00
3178;BME280;38141;42.666;23.344;2023-04-15T04:37:40;93991.75;;;10.70;99.78
3178;BME280;38141;42.666;23.344;2023-04-15T04:40:07;94008.63;;;11.26;92.21
3178;BME280;38141;42.666;23.344;2023-04-15T04:42:35;93999.19;;;11.75;82.39
3178;BME280;38141;42.666;23.344;2023-04-15T04:45:02;93908.31;;;11.02;80.82
3178;BME280;38141;42.666;23.344;2023-04-15T04:47:28;93945.31;;;11.80;75.85
3178;BME280;38141;42.666;23.344;2023-04-15T04:49:55;93956.03;;;12.87;70.15
3178;BME280;38141;42.666;23.344;2023-04-15T04:52:23;93992.88;;;13.31;65.19
3178;BME280;38141;42.666;23.344;2023-04-15T04:54:50;94033.81;;;13.84;63.07
3178;BME280;38141;42.666;23.344;2023-04-15T04:57:17;94033.63;;;14.82;61.17
3178;BME280;38141;42.666;23.344;2023-04-15T04:59:44;94038.59;;;15.03;58.39
3178;BME280;38141;42.666;23.344;2023-04-15T05:02:11;94030.28;;;16.51;53.88
3178;BME280;38141;42.666;23.344;2023-04-15T05:04:37;94046.50;;;16.17;53.47
3178;BME280;38141;42.666;23.344;2023-04-15T05:07:06;94043.28;;;17.10;51.69
3178;BME280;38141;42.666;23.344;2023-04-15T05:09:34;94051.88;;;18.03;49.15
3178;BME280;38141;42.666;23.344;2023-04-15T05:12:01;94039.78;;;17.91;48.11
3178;BME280;38141;42.666;23.344;2023-04-15T05:14:28;93998.47;;;19.67;43.48
3178;BME280;38141;42.666;23.344;2023-04-15T05:16:55;94073.34;;;21.66;39.81
3178;BME280;38141;42.666;23.344;2023-04-15T05:19:22;94080.28;;;20.78;41.32
3178;BME280;38141;42.666;23.344;2023-04-15T05:21:48;94004.38;;;20.20;41.47
3178;BME280;38141;42.666;23.344;2023-04-15T05:24:15;94066.31;;;20.49;40.65
3178;BME280;38141;42.666;23.344;2023-04-15T05:26:43;94077.31;;;21.89;38.96
3178;BME280;38141;42.666;23.344;2023-04-15T05:29:10;94046.03;;;21.30;38.63
3178;BME280;38141;42.666;23.344;2023-04-15T05:31:37;94073.56;;;22.69;36.93
3178;BME280;38141;42.666;23.344;2023-04-15T05:34:06;94072.34;;;23.49;35.97
3178;BME280;38141;42.666;23.344;2023-04-15T05:36:33;94064.00;;;25.28;33.42
3178;BME280;38141;42.666;23.344;2023-04-15T05:39:00;94057.47;;;24.22;34.20
3178;BME280;38141;42.666;23.344;2023-04-15T05:41:27;94019.53;;;24.22;33.46
3178;BME280;38141;42.666;23.344;2023-04-15T05:43:55;94051.25;;;24.27;33.33
3178;BME280;38141;42.666;23.344;2023-04-15T05:46:22;94080.22;;;26.31;31.40
3178;BME280;38141;42.666;23.344;2023-04-15T05:48:49;94070.94;;;25.43;32.23
3178;BME280;38141;42.666;23.344;2023-04-15T05:51:16;94054.47;;;24.71;33.13
3178;BME280;38141;42.666;23.344;2023-04-15T05:53:42;94085.50;;;25.75;32.29
3178;BME280;38141;42.666;23.344;2023-04-15T05:56:10;94082.00;;;26.39;31.65
3178;BME280;38141;42.666;23.344;2023-04-15T05:58:37;94076.63;;;27.06;30.84
3178;BME280;38141;42.666;23.344;2023-04-15T06:01:05;94083.06;;;26.59;30.65
3178;BME280;38141;42.666;23.344;2023-04-15T06:03:32;94060.00;;;25.65;31.64
3178;BME280;38141;42.666;23.344;2023-04-15T06:05:59;94099.09;;;26.21;31.19
3178;BME280;38141;42.666;23.344;2023-04-15T06:08:27;94097.69;;;25.94;30.92
3178;BME280;38141;42.666;23.344;2023-04-15T06:10:53;94104.16;;;27.65;28.91
3178;BME280;38141;42.666;23.344;2023-04-15T06:13:20;94099.56;;;26.90;29.93
3178;BME280;38141;42.666;23.344;2023-04-15T06:15:47;94096.88;;;26.25;30.63
3178;BME280;38141;42.666;23.344;2023-04-15T06:18:16;94108.66;;;26.20;30.54
3178;BME280;38141;42.666;23.344;2023-04-15T06:20:42;94088.69;;;23.18;34.18
3178;BME280;38141;42.666;23.344;2023-04-15T06:23:09;94094.81;;;24.32;32.96
3178;BME280;38141;42.666;23.344;2023-04-15T06:25:38;94105.47;;;25.16;32.16
3178;BME280;38141;42.666;23.344;2023-04-15T06:28:05;94115.00;;;25.47;31.20
3178;BME280;38141;42.666;23.344;2023-04-15T06:30:32;94122.00;;;24.59;32.90
3178;BME280;38141;42.666;23.344;2023-04-15T06:33:00;94104.59;;;25.36;32.33
3178;BME280;38141;42.666;23.344;2023-04-15T06:35:31;94125.09;;;25.50;32.16
3178;BME280;38141;42.666;23.344;2023-04-15T06:37:58;94121.53;;;23.30;34.02
3178;BME280;38141;42.666;23.344;2023-04-15T06:40:24;94119.81;;;24.03;34.15
3178;BME280;38141;42.666;23.344;2023-04-15T06:42:51;94122.69;;;22.41;35.38
3178;BME280;38141;42.666;23.344;2023-04-15T06:45:18;94136.53;;;21.94;36.57
3178;BME280;38141;42.666;23.344;2023-04-15T06:47:45;94138.22;;;21.58;37.16
3178;BME280;38141;42.666;23.344;2023-04-15T06:50:11;94117.72;;;23.13;35.30
3178;BME280;38141;42.666;23.344;2023-04-15T06:52:40;94132.94;;;23.23;35.26
3178;BME280;38141;42.666;23.344;2023-04-15T06:55:07;94126.03;;;23.98;33.55
3178;BME280;38141;42.666;23.344;2023-04-15T06:57:34;94144.25;;;24.70;32.63
3178;BME280;38141;42.666;23.344;2023-04-15T07:00:01;94134.59;;;24.60;32.22
3178;BME280;38141;42.666;23.344;2023-04-15T07:02:30;94130.34;;;24.19;33.03
3178;BME280;38141;42.666;23.344;2023-04-15T07:04:56;94132.63;;;23.85;33.61
3178;BME280;38141;42.666;23.344;2023-04-15T07:07:23;94130.84;;;23.18;34.01
3178;BME280;38141;42.666;23.344;2023-04-15T07:09:52;94135.91;;;24.65;33.15
3178;BME280;38141;42.666;23.344;2023-04-15T07:12:19;94132.22;;;22.55;34.96
3178;BME280;38141;42.666;23.344;2023-04-15T07:14:46;94136.63;;;22.23;35.90
3178;BME280;38141;42.666;23.344;2023-04-15T07:17:13;94128.38;;;22.76;35.22
3178;BME280;38141;42.666;23.344;2023-04-15T07:19:40;94138.50;;;20.67;37.91
3178;BME280;38141;42.666;23.344;2023-04-15T07:22:07;94113.34;;;22.24;35.61
3178;BME280;38141;42.666;23.344;2023-04-15T07:24:34;94133.91;;;21.90;35.91
3178;BME280;38141;42.666;23.344;2023-04-15T07:27:02;94118.06;;;23.35;34.42
3178;BME280;38141;42.666;23.344;2023-04-15T07:29:29;94114.00;;;23.45;33.89
3178;BME280;38141;42.666;23.344;2023-04-15T07:31:55;94136.25;;;23.91;32.98
3178;BME280;38141;42.666;23.344;2023-04-15T07:34:22;94143.13;;;24.16;33.19
3178;BME280;38141;42.666;23.344;2023-04-15T07:36:49;94141.69;;;23.36;35.24
3178;BME280;38141;42.666;23.344;2023-04-15T07:39:16;94116.97;;;23.62;33.54
3178;BME280;38141;42.666;23.344;2023-04-15T07:41:43;94130.66;;;23.22;34.57
3178;BME280;38141;42.666;23.344;2023-04-15T07:44:12;94134.25;;;22.69;34.93
3178;BME280;38141;42.666;23.344;2023-04-15T07:46:39;94128.16;;;22.65;34.87
3178;BME280;38141;42.666;23.344;2023-04-15T07:49:06;94134.59;;;23.65;34.25
3178;BME280;38141;42.666;23.344;2023-04-15T07:51:33;94135.44;;;24.06;33.64
3178;BME280;38141;42.666;23.344;2023-04-15T07:53:59;94141.72;;;23.71;33.67
3178;BME280;38141;42.666;23.344;2023-04-15T07:56:27;94141.53;;;23.11;34.42
3178;BME280;38141;42.666;23.344;2023-04-15T07:58:54;94150.13;;;21.97;36.31
3178;BME280;38141;42.666;23.344;2023-04-15T08:01:22;94164.56;;;21.83;36.65
3178;BME280;38141;42.666;23.344;2023-04-15T08:03:49;94155.53;;;22.15;36.58
3178;BME280;38141;42.666;23.344;2023-04-15T08:06:16;94160.59;;;21.51;37.40
3178;BME280;38141;42.666;23.344;2023-04-15T08:08:43;94146.28;;;21.38;37.00
3178;BME280;38141;42.666;23.344;2023-04-15T08:11:10;94149.31;;;21.73;37.12
3178;BME280;38141;42.666;23.344;2023-04-15T08:13:37;94143.22;;;22.26;35.25
3178;BME280;38141;42.666;23.344;2023-04-15T08:16:16;94153.25;;;22.52;35.30
3178;BME280;38141;42.666;23.344;2023-04-15T08:18:45;94152.19;;;22.88;35.24
3178;BME280;38141;42.666;23.344;2023-04-15T08:21:12;94133.56;;;23.62;33.77
3178;BME280;38141;42.666;23.344;2023-04-15T08:23:39;94148.31;;;22.56;34.56
3178;BME280;38141;42.666;23.344;2023-04-15T08:26:06;94160.56;;;22.94;34.42
3178;BME280;38141;42.666;23.344;2023-04-15T08:28:33;94148.03;;;24.27;32.63
3178;BME280;38141;42.666;23.344;2023-04-15T08:31:00;94144.72;;;24.23;31.65
3178;BME280;38141;42.666;23.344;2023-04-15T08:33:27;94149.03;;;24.09;32.68
3178;BME280;38141;42.666;23.344;2023-04-15T08:35:57;94149.59;;;24.13;32.81
3178;BME280;38141;42.666;23.344;2023-04-15T08:38:24;94142.09;;;23.00;34.23
3178;BME280;38141;42.666;23.344;2023-04-15T08:40:51;94130.28;;;23.78;32.90
3178;BME280;38141;42.666;23.344;2023-04-15T08:43:20;94110.47;;;23.80;31.82
3178;BME280;38141;42.666;23.344;2023-04-15T08:45:49;94139.19;;;25.78;30.39
3178;BME280;38141;42.666;23.344;2023-04-15T08:48:16;94111.13;;;25.33;29.41
3178;BME280;38141;42.666;23.344;2023-04-15T08:50:43;94118.91;;;26.57;29.37
3178;BME280;38141;42.666;23.344;2023-04-15T08:53:12;94132.03;;;26.08;29.98
3178;BME280;38141;42.666;23.344;2023-04-15T08:55:42;94130.06;;;26.14;29.25
3178;BME280;38141;42.666;23.344;2023-04-15T08:58:10;94121.25;;;28.14;27.71
3178;BME280;38141;42.666;23.344;2023-04-15T09:00:36;94119.53;;;27.11;28.67
3178;BME280;38141;42.666;23.344;2023-04-15T09:03:04;94119.53;;;27.44;28.14
3178;BME280;38141;42.666;23.344;2023-04-15T09:05:32;94104.16;;;27.21;28.19
3178;BME280;38141;42.666;23.344;2023-04-15T09:07:59;94112.72;;;27.23;28.14
3178;BME280;38141;42.666;23.344;2023-04-15T09:10:28;94117.13;;;28.32;26.46
3178;BME280;38141;42.666;23.344;2023-04-15T09:12:55;94120.84;;;29.03;24.87
3178;BME280;38141;42.666;23.344;2023-04-15T09:15:23;94114.53;;;28.45;25.96
3178;BME280;38141;42.666;23.344;2023-04-15T09:17:51;94102.78;;;28.68;25.64
3178;BME280;38141;42.666;23.344;2023-04-15T09:20:18;94095.44;;;30.87;23.16
3178;BME280;38141;42.666;23.344;2023-04-15T09:22:47;94101.78;;;33.02;21.99
3178;BME280;38141;42.666;23.344;2023-04-15T09:25:28;94094.28;;;30.96;22.82
3178;BME280;38141;42.666;23.344;2023-04-15T09:27:56;94090.34;;;30.48;23.86
3178;BME280;38141;42.666;23.344;2023-04-15T09:30:23;94104.06;;;29.49;24.78
3178;BME280;38141;42.666;23.344;2023-04-15T09:32:51;94101.41;;;28.40;25.55
3178;BME280;38141;42.666;23.344;2023-04-15T09:35:18;94102.06;;;29.09;24.83
3178;BME280;38141;42.666;23.344;2023-04-15T09:37:45;94085.44;;;28.46;25.03
3178;BME280;38141;42.666;23.344;2023-04-15T09:40:12;94077.00;;;28.05;25.75
3178;BME280;38141;42.666;23.344;2023-04-15T09:42:56;94098.84;;;27.62;25.68
3178;BME280;38141;42.666;23.344;2023-04-15T09:45:23;94072.31;;;27.38;26.44
3178;BME280;38141;42.666;23.344;2023-04-15T09:47:50;94089.88;;;25.93;27.23
3178;BME280;38141;42.666;23.344;2023-04-15T09:50:18;94096.19;;;26.58;27.83
3178;BME280;38141;42.666;23.344;2023-04-15T09:52:45;94101.59;;;25.40;27.86
3178;BME280;38141;42.666;23.344;2023-04-15T09:55:14;94117.44;;;25.34;28.12
3178;BME280;38141;42.666;23.344;2023-04-15T09:57:41;94112.75;;;26.25;27.36
3178;BME280;38141;42.666;23.344;2023-04-15T10:00:10;94110.84;;;25.00;28.69
3178;BME280;38141;42.666;23.344;2023-04-15T10:02:39;94074.53;;;24.00;29.31
3178;BME280;38141;42.666;23.344;2023-04-15T10:05:10;94085.09;;;24.16;28.80
3178;BME280;38141;42.666;23.344;2023-04-15T10:07:37;94083.13;;;25.26;27.84
3178;BME280;38141;42.666;23.344;2023-04-15T10:10:06;94107.88;;;26.14;26.73
3178;BME280;38141;42.666;23.344;2023-04-15T10:12:36;94096.81;;;25.35;27.37
3178;BME280;38141;42.666;23.344;2023-04-15T10:15:04;94094.09;;;24.57;25.59
3178;BME280;38141;42.666;23.344;2023-04-15T10:17:33;94085.38;;;24.44;25.79
3178;BME280;38141;42.666;23.344;2023-04-15T10:20:02;94063.22;;;23.78;26.72
3178;BME280;38141;42.666;23.344;2023-04-15T10:22:30;94066.81;;;24.76;25.99
3178;BME280;38141;42.666;23.344;2023-04-15T10:24:57;94039.47;;;23.66;26.57
3178;BME280;38141;42.666;23.344;2023-04-15T10:27:25;94038.66;;;23.45;27.39
3178;BME280;38141;42.666;23.344;2023-04-15T10:29:53;94068.19;;;24.60;26.99
3178;BME280;38141;42.666;23.344;2023-04-15T10:32:21;94020.75;;;23.55;27.18
3178;BME280;38141;42.666;23.344;2023-04-15T10:34:50;94067.47;;;23.09;27.66
3178;BME280;38141;42.666;23.344;2023-04-15T10:37:21;94055.94;;;23.25;27.71
3178;BME280;38141;42.666;23.344;2023-04-15T10:39:48;94059.97;;;22.95;28.22
3178;BME280;38141;42.666;23.344;2023-04-15T10:42:17;94029.09;;;23.26;27.91
3178;BME280;38141;42.666;23.344;2023-04-15T10:44:48;94058.38;;;23.93;27.14
3178;BME280;38141;42.666;23.344;2023-04-15T10:47:17;94070.34;;;24.25;27.25
3178;BME280;38141;42.666;23.344;2023-04-15T10:49:46;94046.78;;;24.55;26.79
3178;BME280;38141;42.666;23.344;2023-04-15T10:52:15;94058.88;;;23.91;27.76
3178;BME280;38141;42.666;23.344;2023-04-15T10:54:43;94064.66;;;23.38;28.13
3178;BME280;38141;42.666;23.344;2023-04-15T10:57:15;94056.19;;;23.07;28.29
3178;BME280;38141;42.666;23.344;2023-04-15T11:00:02;94057.63;;;23.72;28.41
3178;BME280;38141;42.666;23.344;2023-04-15T11:02:40;94044.97;;;24.26;27.39
3178;BME280;38141;42.666;23.344;2023-04-15T11:05:07;94045.03;;;24.12;26.88
3178;BME280;38141;42.666;23.344;2023-04-15T11:07:40;94022.75;;;23.40;26.67
3178;BME280;38141;42.666;23.344;2023-04-15T11:10:49;94044.84;;;23.95;25.42
3178;BME280;38141;42.666;23.344;2023-04-15T11:13:22;94019.00;;;23.58;24.91
3178;BME280;38141;42.666;23.344;2023-04-15T11:15:50;94053.16;;;24.41;26.11
3178;BME280;38141;42.666;23.344;2023-04-15T11:18:18;94042.06;;;24.15;26.23
3178;BME280;38141;42.666;23.344;2023-04-15T11:20:47;94022.25;;;23.21;26.53
3178;BME280;38141;42.666;23.344;2023-04-15T11:23:17;94017.59;;;24.28;24.61
3178;BME280;38141;42.666;23.344;2023-04-15T11:25:45;94055.09;;;23.89;27.72
3178;BME280;38141;42.666;23.344;2023-04-15T11:28:13;94061.34;;;23.69;27.75
3178;BME280;38141;42.666;23.344;2023-04-15T11:30:41;94063.34;;;22.70;26.38
3178;BME280;38141;42.666;23.344;2023-04-15T11:33:08;94044.63;;;23.09;26.52
3178;BME280;38141;42.666;23.344;2023-04-15T11:35:37;94051.41;;;23.42;26.03
3178;BME280;38141;42.666;23.344;2023-04-15T11:38:08;94046.63;;;23.58;25.88
3178;BME280;38141;42.666;23.344;2023-04-15T11:40:38;93993.59;;;23.54;25.07
3178;BME280;38141;42.666;23.344;2023-04-15T11:43:06;93987.13;;;23.22;24.66
3178;BME280;38141;42.666;23.344;2023-04-15T11:45:34;93984.09;;;23.40;23.70
3178;BME280;38141;42.666;23.344;2023-04-15T11:48:07;94031.22;;;23.91;24.28
3178;BME280;38141;42.666;23.344;2023-04-15T11:50:35;94029.25;;;23.37;24.93
3178;BME280;38141;42.666;23.344;2023-04-15T11:53:05;94027.19;;;22.82;25.81
3178;BME280;38141;42.666;23.344;2023-04-15T11:55:42;94028.38;;;23.11;25.12
3178;BME280;38141;42.666;23.344;2023-04-15T11:58:11;94034.03;;;22.72;25.33
3178;BME280;38141;42.666;23.344;2023-04-15T12:00:39;93934.41;;;22.06;25.86
3178;BME280;38141;42.666;23.344;2023-04-15T12:03:13;94034.22;;;22.98;25.73
3178;BME280;38141;42.666;23.344;2023-04-15T12:06:02;94033.72;;;22.99;25.20
3178;BME280;38141;42.666;23.344;2023-04-15T12:09:02;94031.44;;;23.33;24.73
3178;BME280;38141;42.666;23.344;2023-04-15T12:11:35;94036.00;;;23.01;25.01
3178;BME280;38141;42.666;23.344;2023-04-15T12:14:05;94029.94;;;22.97;24.83
3178;BME280;38141;42.666;23.344;2023-04-15T12:16:33;94036.69;;;22.96;25.50
3178;BME280;38141;42.666;23.344;2023-04-15T12:19:04;93979.09;;;22.39;25.67
3178;BME280;38141;42.666;23.344;2023-04-15T12:21:34;94025.50;;;22.70;24.99
3178;BME280;38141;42.666;23.344;2023-04-15T12:24:03;93958.72;;;22.37;25.63
3178;BME280;38141;42.666;23.344;2023-04-15T12:26:35;94016.69;;;23.01;25.28
3178;BME280;38141;42.666;23.344;2023-04-15T12:29:04;94011.56;;;22.65;25.91
3178;BME280;38141;42.666;23.344;2023-04-15T12:31:31;94029.00;;;22.71;26.00
3178;BME280;38141;42.666;23.344;2023-04-15T12:34:00;94029.84;;;22.62;26.79
3178;BME280;38141;42.666;23.344;2023-04-15T12:36:27;94034.81;;;21.66;27.28
3178;BME280;38141;42.666;23.344;2023-04-15T12:38:57;94037.31;;;21.79;26.85
3178;BME280;38141;42.666;23.344;2023-04-15T12:41:24;94012.44;;;21.88;27.01
3178;BME280;38141;42.666;23.344;2023-04-15T12:43:52;94033.25;;;21.89;27.58
3178;BME280;38141;42.666;23.344;2023-04-15T12:46:19;94024.94;;;22.13;27.24
3178;BME280;38141;42.666;23.344;2023-04-15T12:48:46;94044.31;;;22.72;27.38
3178;BME280;38141;42.666;23.344;2023-04-15T12:51:13;94041.44;;;22.66;26.95
3178;BME280;38141;42.666;23.344;2023-04-15T12:53:40;94043.47;;;21.98;27.00
3178;BME280;38141;42.666;23.344;2023-04-15T12:56:07;94056.41;;;21.83;26.88
3178;BME280;38141;42.666;23.344;2023-04-15T12:58:33;94051.88;;;21.94;26.84
3178;BME280;38141;42.666;23.344;2023-04-15T13:01:01;93974.44;;;21.39;27.32
3178;BME280;38141;42.666;23.344;2023-04-15T13:03:29;94025.25;;;21.29;27.53
3178;BME280;38141;42.666;23.344;2023-04-15T13:05:56;94030.50;;;21.18;27.83